createdAt,value
2018-09-22T00:01:53.540Z,97148.98
2018-09-22T00:04:24.128Z,97138.39
2018-09-22T00:06:53.064Z,97147.16
2018-09-22T00:09:22.219Z,97159.30
2018-09-22T00:11:52.185Z,97151.57
2018-09-22T00:14:21.417Z,97155.44
2018-09-22T00:16:50.715Z,97156.99
2018-09-22T00:19:20.040Z,97168.08
2018-09-22T00:21:49.396Z,97164.70
2018-09-22T00:24:18.899Z,97173.73
2018-09-22T00:26:48.268Z,97171.93
2018-09-22T00:29:17.494Z,97176.83
2018-09-22T00:31:46.771Z,97167.02
2018-09-22T00:34:15.656Z,97175.01
2018-09-22T00:36:44.531Z,97176.81
2018-09-22T00:39:13.420Z,97174.23
2018-09-22T00:41:42.300Z,97179.39
2018-09-22T00:44:11.788Z,97188.41
2018-09-22T00:46:40.783Z,97186.61
2018-09-22T00:49:09.788Z,97197.70
2018-09-22T00:51:38.657Z,97194.61
2018-09-22T00:54:07.497Z,97197.20
2018-09-22T00:56:36.402Z,97189.95
2018-09-22T00:59:05.744Z,97180.41
2018-09-22T01:01:35.588Z,97188.89
2018-09-22T01:04:04.892Z,97185.31
2018-09-22T01:06:34.296Z,97193.55
2018-09-22T01:09:04.051Z,97200.27
2018-09-22T01:11:33.191Z,97202.57
2018-09-22T01:14:02.063Z,97206.73
2018-09-22T01:16:30.947Z,97227.86
2018-09-22T01:18:59.803Z,97227.88
2018-09-22T01:21:28.664Z,97222.72
2018-09-22T01:23:57.604Z,97216.52
2018-09-22T01:26:28.499Z,97223.22
2018-09-22T01:28:57.456Z,97233.27
2018-09-22T01:31:26.322Z,97229.66
2018-09-22T01:33:55.607Z,97229.92
2018-09-22T01:36:24.886Z,97231.21
2018-09-22T01:38:54.163Z,97236.38
2018-09-22T01:41:23.472Z,97241.27
2018-09-22T01:43:52.810Z,97243.08
2018-09-22T01:46:22.115Z,97238.95
2018-09-22T01:48:50.965Z,97245.39
2018-09-22T01:51:19.836Z,97250.05
2018-09-22T01:53:48.795Z,97249.80
2018-09-22T01:56:20.698Z,97248.25
2018-09-22T01:58:49.548Z,97239.20
2018-09-22T02:01:18.404Z,97244.88
2018-09-22T02:03:47.257Z,97246.41
2018-09-22T02:06:16.127Z,97250.83
2018-09-22T02:08:45.163Z,97251.06
2018-09-22T02:11:14.191Z,97247.44
2018-09-22T02:13:43.088Z,97252.06
2018-09-22T02:16:11.947Z,97257.73
2018-09-22T02:18:40.826Z,97260.80
2018-09-22T02:21:09.712Z,97265.67
2018-09-22T02:23:38.673Z,97255.59
2018-09-22T02:26:07.564Z,97234.43
2018-09-22T02:28:36.816Z,97226.67
2018-09-22T02:31:06.059Z,97230.06
2018-09-22T02:33:34.957Z,97233.39
2018-09-22T02:36:03.848Z,97232.34
2018-09-22T02:38:32.719Z,97224.88
2018-09-22T02:41:01.622Z,97232.81
2018-09-22T02:43:30.499Z,97245.67
2018-09-22T02:45:59.391Z,97245.39
2018-09-22T02:48:28.302Z,97245.38
2018-09-22T02:50:57.204Z,97259.53
2018-09-22T02:53:26.275Z,97271.63
2018-09-22T02:55:55.171Z,97288.09
2018-09-22T02:58:24.058Z,97279.05
2018-09-22T03:00:53.218Z,97279.05
2018-09-22T03:03:22.125Z,97258.14
2018-09-22T03:05:51.016Z,97268.94
2018-09-22T03:08:20.120Z,97261.73
2018-09-22T03:10:49.077Z,97269.70
2018-09-22T03:13:17.952Z,97281.48
2018-09-22T03:15:46.834Z,97297.20
2018-09-22T03:18:15.723Z,97288.95
2018-09-22T03:20:44.645Z,97282.51
2018-09-22T03:23:13.534Z,97270.16
2018-09-22T03:25:42.412Z,97258.83
2018-09-22T03:28:11.304Z,97258.81
2018-09-22T03:30:40.208Z,97263.45
2018-09-22T03:33:09.093Z,97255.73
2018-09-22T03:35:38.117Z,97256.99
2018-09-22T03:38:07.032Z,97264.44
2018-09-22T03:40:35.903Z,97270.38
2018-09-22T03:43:04.907Z,97274.20
2018-09-22T03:45:33.951Z,97257.73
2018-09-22T03:48:02.800Z,97256.99
2018-09-22T03:50:31.692Z,97269.37
2018-09-22T03:53:00.561Z,97267.80
2018-09-22T03:55:29.452Z,97277.05
2018-09-22T03:57:58.334Z,97288.34
2018-09-22T04:00:27.204Z,97286.77
2018-09-22T04:02:56.263Z,97288.08
2018-09-22T04:05:25.279Z,97288.37
2018-09-22T04:07:54.284Z,97289.34
2018-09-22T04:10:23.365Z,97281.64
2018-09-22T04:12:52.239Z,97278.30
2018-09-22T04:15:21.128Z,97283.19
2018-09-22T04:17:50.020Z,97278.52
2018-09-22T04:20:18.936Z,97280.06
2018-09-22T04:22:48.300Z,97291.65
2018-09-22T04:25:17.308Z,97273.89
2018-09-22T04:27:46.155Z,97278.56
2018-09-22T04:30:15.044Z,97280.12
2018-09-22T04:32:43.920Z,97284.27
2018-09-22T04:35:12.803Z,97279.59
2018-09-22T04:37:41.668Z,97280.61
2018-09-22T04:40:10.572Z,97272.89
2018-09-22T04:42:39.460Z,97270.30
2018-09-22T04:45:08.400Z,97279.04
2018-09-22T04:47:37.327Z,97272.84
2018-09-22T04:50:06.559Z,97292.12
2018-09-22T04:52:35.455Z,97298.31
2018-09-22T04:55:04.399Z,97293.88
2018-09-22T04:57:33.369Z,97294.66
2018-09-22T05:00:02.248Z,97290.80
2018-09-22T05:02:31.130Z,97295.13
2018-09-22T05:05:00.028Z,97300.54
2018-09-22T05:07:28.920Z,97302.13
2018-09-22T05:09:57.836Z,97302.13
2018-09-22T05:12:27.923Z,97304.14
2018-09-22T05:14:56.861Z,97306.71
2018-09-22T05:17:25.928Z,97301.80
2018-09-22T05:19:54.795Z,97301.09
2018-09-22T05:22:23.701Z,97296.19
2018-09-22T05:24:52.630Z,97307.23
2018-09-22T05:27:21.500Z,97305.42
2018-09-22T05:29:50.469Z,97304.43
2018-09-22T05:32:19.345Z,97300.08
2018-09-22T05:34:48.571Z,97303.97
2018-09-22T05:37:17.768Z,97306.28
2018-09-22T05:39:50.025Z,97309.38
2018-09-22T05:42:19.348Z,97314.27
2018-09-22T05:44:50.967Z,97320.44
2018-09-22T05:47:19.906Z,97325.94
2018-09-22T05:49:48.776Z,97322.80
2018-09-22T05:52:17.644Z,97336.20
2018-09-22T05:54:46.515Z,97329.03
2018-09-22T05:57:15.504Z,97339.13
2018-09-22T05:59:44.476Z,97336.82
2018-09-22T06:02:13.381Z,97340.66
2018-09-22T06:04:42.364Z,97351.56
2018-09-22T06:07:11.315Z,97348.97
2018-09-22T06:09:40.396Z,97348.02
2018-09-22T06:12:09.280Z,97349.59
2018-09-22T06:14:38.172Z,97339.59
2018-09-22T06:17:07.075Z,97336.27
2018-09-22T06:19:35.952Z,97342.50
2018-09-22T06:22:04.856Z,97343.59
2018-09-22T06:24:33.869Z,97347.01
2018-09-22T06:27:02.754Z,97339.04
2018-09-22T06:29:31.649Z,97346.30
2018-09-22T06:32:00.528Z,97347.79
2018-09-22T06:34:29.395Z,97345.77
2018-09-22T06:36:58.280Z,97355.56
2018-09-22T06:39:27.246Z,97354.78
2018-09-22T06:41:59.491Z,97361.51
2018-09-22T06:44:28.396Z,97360.98
2018-09-22T06:46:57.246Z,97360.31
2018-09-22T06:49:26.504Z,97376.86
2018-09-22T06:51:55.376Z,97373.33
2018-09-22T06:54:25.441Z,97372.53
2018-09-22T06:56:54.316Z,97374.13
2018-09-22T06:59:23.239Z,97373.31
2018-09-22T07:01:52.219Z,97377.98
2018-09-22T07:04:21.148Z,97370.06
2018-09-22T07:06:50.022Z,97367.73
2018-09-22T07:09:18.880Z,97379.44
2018-09-22T07:11:47.765Z,97378.39
2018-09-22T07:14:16.623Z,97379.80
2018-09-22T07:16:45.538Z,97381.39
2018-09-22T07:19:14.484Z,97384.30
2018-09-22T07:21:48.820Z,97398.51
2018-09-22T07:24:17.692Z,97402.39
2018-09-22T07:26:46.564Z,97391.19
2018-09-22T07:29:15.475Z,97384.36
2018-09-22T07:31:44.725Z,97384.77
2018-09-22T07:34:13.943Z,97388.64
2018-09-22T07:36:43.228Z,97384.23
2018-09-22T07:39:13.010Z,97385.56
2018-09-22T07:41:42.396Z,97386.87
2018-09-22T07:44:11.971Z,97385.33
2018-09-22T07:46:41.003Z,97388.70
2018-09-22T07:49:10.276Z,97386.09
2018-09-22T07:51:39.789Z,97383.80
2018-09-22T07:54:09.231Z,97386.08
2018-09-22T07:56:38.229Z,97379.89
2018-09-22T07:59:07.148Z,97379.26
2018-09-22T08:01:36.082Z,97368.58
2018-09-22T08:04:07.082Z,97375.50
2018-09-22T08:06:36.023Z,97364.73
2018-09-22T08:09:06.753Z,97377.99
2018-09-22T08:11:37.559Z,97374.94
2018-09-22T08:14:08.536Z,97387.08
2018-09-22T08:16:41.625Z,97379.59
2018-09-22T08:19:10.936Z,97371.08
2018-09-22T08:21:43.465Z,97373.97
2018-09-22T08:24:15.714Z,97365.17
2018-09-22T08:26:44.886Z,97357.39
2018-09-22T08:29:14.176Z,97361.77
2018-09-22T08:31:44.284Z,97354.02
2018-09-22T08:34:13.672Z,97358.16
2018-09-22T08:36:42.956Z,97360.44
2018-09-22T08:39:12.568Z,97363.69
2018-09-22T08:41:41.872Z,97361.10
2018-09-22T08:44:10.819Z,97371.16
2018-09-22T08:46:39.699Z,97377.75
2018-09-22T08:49:08.566Z,97373.94
2018-09-22T08:51:37.485Z,97373.80
2018-09-22T08:54:06.539Z,97374.70
2018-09-22T08:56:35.426Z,97371.81
2018-09-22T08:59:04.398Z,97378.63
2018-09-22T09:01:33.367Z,97377.34
2018-09-22T09:04:02.252Z,97384.48
2018-09-22T09:06:31.241Z,97374.00
2018-09-22T09:09:00.116Z,97374.86
2018-09-22T09:11:29.734Z,97380.64
2018-09-22T09:13:59.032Z,97379.38
2018-09-22T09:16:27.920Z,97396.72
2018-09-22T09:18:56.785Z,97387.61
2018-09-22T09:21:25.651Z,97392.95
2018-09-22T09:23:54.668Z,97387.63
2018-09-22T09:26:25.961Z,97397.69
2018-09-22T09:28:54.888Z,97402.16
2018-09-22T09:31:23.992Z,97402.28
2018-09-22T09:33:52.865Z,97393.33
2018-09-22T09:36:22.953Z,97379.84
2018-09-22T09:38:57.086Z,97381.41
2018-09-22T09:41:25.948Z,97389.06
2018-09-22T09:43:54.889Z,97386.77
2018-09-22T09:46:23.868Z,97390.04
2018-09-22T09:48:52.839Z,97385.95
2018-09-22T09:51:21.732Z,97380.64
2018-09-22T09:53:50.692Z,97383.28
2018-09-22T09:56:19.996Z,97367.11
2018-09-22T09:58:48.894Z,97363.48
2018-09-22T10:01:17.827Z,97352.95
2018-09-22T10:03:46.780Z,97344.56
2018-09-22T10:06:15.677Z,97356.83
2018-09-22T10:08:44.631Z,97349.20
2018-09-22T10:11:13.536Z,97353.25
2018-09-22T10:13:42.407Z,97345.76
2018-09-22T10:16:11.285Z,97330.63
2018-09-22T10:18:40.185Z,97325.64
2018-09-22T10:21:09.115Z,97326.52
2018-09-22T10:23:37.988Z,97313.73
2018-09-22T10:26:13.499Z,97309.84
2018-09-22T10:28:42.479Z,97321.67
2018-09-22T10:31:11.468Z,97319.63
2018-09-22T10:33:40.428Z,97324.02
2018-09-22T10:36:09.325Z,97319.63
2018-09-22T10:38:38.187Z,97309.25
2018-09-22T10:41:07.191Z,97302.47
2018-09-22T10:43:36.051Z,97292.20
2018-09-22T10:46:04.956Z,97293.42
2018-09-22T10:48:33.862Z,97304.91
2018-09-22T10:51:02.793Z,97305.24
2018-09-22T10:53:31.675Z,97312.41
2018-09-22T10:56:00.564Z,97305.84
2018-09-22T10:58:29.707Z,97320.50
2018-09-22T11:00:58.573Z,97313.22
2018-09-22T11:03:27.512Z,97321.28
2018-09-22T11:05:56.495Z,97304.36
2018-09-22T11:08:25.512Z,97299.33
2018-09-22T11:10:54.385Z,97297.91
2018-09-22T11:13:23.324Z,97305.72
2018-09-22T11:15:52.208Z,97301.22
2018-09-22T11:18:21.055Z,97300.28
2018-09-22T11:20:49.902Z,97292.79
2018-09-22T11:23:18.775Z,97301.72
2018-09-22T11:25:47.710Z,97308.67
2018-09-22T11:28:16.563Z,97310.92
2018-09-22T11:30:45.480Z,97300.47
2018-09-22T11:33:14.496Z,97287.65
2018-09-22T11:35:43.384Z,97279.23
2018-09-22T11:38:12.292Z,97270.38
2018-09-22T11:40:41.160Z,97262.83
2018-09-22T11:43:10.138Z,97258.59
2018-09-22T11:45:39.317Z,97249.13
2018-09-22T11:48:08.458Z,97236.39
2018-09-22T11:50:37.453Z,97224.82
2018-09-22T11:53:07.021Z,97220.90
2018-09-22T11:55:36.096Z,97214.36
2018-09-22T11:58:05.158Z,97212.15
2018-09-22T12:00:34.100Z,97210.61
2018-09-22T12:03:02.951Z,97202.30
2018-09-22T12:05:31.820Z,97194.48
2018-09-22T12:08:00.695Z,97184.27
2018-09-22T12:10:29.590Z,97199.73
2018-09-22T12:12:58.529Z,97195.34
2018-09-22T12:15:27.552Z,97195.52
2018-09-22T12:17:56.477Z,97197.34
2018-09-22T12:20:25.359Z,97196.27
2018-09-22T12:22:54.316Z,97197.53
2018-09-22T12:25:23.276Z,97203.37
2018-09-22T12:27:52.166Z,97202.63
2018-09-22T12:30:21.075Z,97207.81
2018-09-22T12:32:50.080Z,97218.64
2018-09-22T12:35:18.990Z,97220.75
2018-09-22T12:37:47.864Z,97216.53
2018-09-22T12:40:16.759Z,97213.17
2018-09-22T12:42:45.639Z,97203.87
2018-09-22T12:45:14.551Z,97205.26
2018-09-22T12:47:43.527Z,97200.97
2018-09-22T12:50:12.497Z,97200.25
2018-09-22T12:52:41.387Z,97190.91
2018-09-22T12:55:10.308Z,97173.54
2018-09-22T12:57:39.169Z,97160.92
2018-09-22T13:00:08.089Z,97164.19
2018-09-22T13:02:37.123Z,97167.36
2018-09-22T13:05:06.209Z,97161.69
2018-09-22T13:07:35.103Z,97153.28
2018-09-22T13:10:04.053Z,97155.34
2018-09-22T13:12:32.913Z,97158.27
2018-09-22T13:15:01.812Z,97162.27
2018-09-22T13:17:30.791Z,97149.77
2018-09-22T13:19:59.732Z,97150.11
2018-09-22T13:22:28.672Z,97141.31
2018-09-22T13:24:57.544Z,97120.77
2018-09-22T13:27:26.421Z,97114.75
2018-09-22T13:29:55.395Z,97112.21
2018-09-22T13:32:24.259Z,97109.30
2018-09-22T13:34:53.121Z,97099.92
2018-09-22T13:37:22.030Z,97091.98
2018-09-22T13:39:50.907Z,97087.23
2018-09-22T13:42:19.803Z,97091.45
2018-09-22T13:44:48.731Z,97097.52
2018-09-22T13:47:17.736Z,97111.34
2018-09-22T13:49:46.639Z,97112.09
2018-09-22T13:52:15.503Z,97099.28
2018-09-22T13:54:44.412Z,97101.66
2018-09-22T13:57:13.303Z,97105.90
2018-09-22T13:59:42.230Z,97109.80
2018-09-22T14:02:11.251Z,97107.09
2018-09-22T14:04:40.144Z,97092.34
2018-09-22T14:07:09.017Z,97092.91
2018-09-22T14:09:38.007Z,97082.34
2018-09-22T14:12:07.041Z,97093.48
2018-09-22T14:14:35.932Z,97097.41
2018-09-22T14:17:04.819Z,97101.96
2018-09-22T14:19:33.709Z,97098.12
2018-09-22T14:22:02.656Z,97100.13
2018-09-22T14:24:31.552Z,97097.83
2018-09-22T14:27:00.585Z,97090.78
2018-09-22T14:29:29.521Z,97079.63
2018-09-22T14:31:58.427Z,97085.34
2018-09-22T14:34:27.284Z,97087.41
2018-09-22T14:36:56.162Z,97090.37
2018-09-22T14:39:26.847Z,97089.08
2018-09-22T14:41:55.760Z,97089.95
2018-09-22T14:44:25.073Z,97100.44
2018-09-22T14:46:53.940Z,97091.77
2018-09-22T14:49:25.898Z,97065.27
2018-09-22T14:51:57.309Z,97055.55
2018-09-22T14:54:28.099Z,97050.34
2018-09-22T14:56:58.987Z,97060.28
2018-09-22T14:59:30.276Z,97063.58
2018-09-22T15:01:59.723Z,97068.64
2018-09-22T15:04:30.971Z,97056.83
2018-09-22T15:07:03.154Z,97049.72
2018-09-22T15:09:35.038Z,97046.02
2018-09-22T15:12:05.076Z,97047.70
2018-09-22T15:14:36.135Z,97046.28
2018-09-22T15:17:06.655Z,97062.80
2018-09-22T15:19:35.928Z,97078.55
2018-09-22T15:22:07.670Z,97068.65
2018-09-22T15:24:39.972Z,97076.47
2018-09-22T15:27:09.218Z,97065.72
2018-09-22T15:29:40.772Z,97057.91
2018-09-22T15:32:12.482Z,97036.02
2018-09-22T15:34:41.820Z,97020.48
2018-09-22T15:37:12.503Z,97025.46
2018-09-22T15:39:41.828Z,97018.67
2018-09-22T15:42:11.222Z,97009.55
2018-09-22T15:44:41.588Z,97015.46
2018-09-22T15:47:12.152Z,97027.83
2018-09-22T15:49:41.319Z,97032.97
2018-09-22T15:52:10.541Z,97025.77
2018-09-22T15:54:39.917Z,97036.13
2018-09-22T15:57:09.202Z,97024.62
2018-09-22T15:59:38.820Z,97005.16
2018-09-22T16:02:08.027Z,97005.98
2018-09-22T16:04:37.320Z,97012.97
2018-09-22T16:07:07.930Z,97020.27
2018-09-22T16:09:37.845Z,97025.50
2018-09-22T16:12:07.276Z,97019.33
2018-09-22T16:14:38.814Z,97005.80
2018-09-22T16:17:08.208Z,97010.83
2018-09-22T16:19:37.881Z,97003.34
2018-09-22T16:22:06.920Z,96988.33
2018-09-22T16:24:36.137Z,96993.42
2018-09-22T16:27:05.303Z,96988.61
2018-09-22T16:29:34.731Z,96982.94
2018-09-22T16:32:03.766Z,96979.95
2018-09-22T16:34:33.678Z,96981.33
2018-09-22T16:37:02.836Z,96986.17
2018-09-22T16:39:31.807Z,96992.39
2018-09-22T16:42:01.031Z,96998.15
2018-09-22T16:44:29.931Z,96990.47
2018-09-22T16:46:58.880Z,96997.31
2018-09-22T16:49:27.854Z,96992.20
2018-09-22T16:51:56.712Z,97001.64
2018-09-22T16:54:25.709Z,96999.52
2018-09-22T16:56:54.589Z,97007.70
2018-09-22T16:59:23.565Z,97009.87
2018-09-22T17:01:52.491Z,97009.05
2018-09-22T17:04:22.485Z,97003.95
2018-09-22T17:06:51.437Z,97005.93
2018-09-22T17:09:20.997Z,97005.47
2018-09-22T17:11:51.096Z,97006.36
2018-09-22T17:14:20.185Z,97016.50
2018-09-22T17:16:49.060Z,97021.90
2018-09-22T17:19:18.055Z,97014.66
2018-09-22T17:21:46.940Z,97018.39
2018-09-22T17:24:15.859Z,97027.89
2018-09-22T17:26:44.812Z,97025.83
2018-09-22T17:29:13.834Z,97026.64
2018-09-22T17:31:42.788Z,97036.57
2018-09-22T17:34:13.536Z,97026.67
2018-09-22T17:36:42.461Z,97028.76
2018-09-22T17:39:11.710Z,97025.95
2018-09-22T17:41:40.640Z,97029.30
2018-09-22T17:44:09.606Z,97021.61
2018-09-22T17:46:38.692Z,97025.86
2018-09-22T17:49:07.640Z,97025.43
2018-09-22T17:51:36.583Z,97027.27
2018-09-22T17:54:05.519Z,97041.11
2018-09-22T17:56:34.472Z,97040.99
2018-09-22T17:59:03.585Z,97036.59
2018-09-22T18:01:32.510Z,97045.13
2018-09-22T18:04:01.400Z,97050.34
2018-09-22T18:06:30.384Z,97057.61
2018-09-22T18:08:59.320Z,97060.17
2018-09-22T18:11:28.259Z,97055.25
2018-09-22T18:13:57.691Z,97066.02
2018-09-22T18:16:26.563Z,97058.34
2018-09-22T18:18:55.468Z,97054.03
2018-09-22T18:21:24.479Z,97046.64
2018-09-22T18:23:53.422Z,97056.11
2018-09-22T18:26:22.340Z,97056.90
2018-09-22T18:28:51.319Z,97053.23
2018-09-22T18:31:20.183Z,97047.48
2018-09-22T18:33:49.112Z,97045.45
2018-09-22T18:36:18.023Z,97061.30
2018-09-22T18:38:47.032Z,97064.29
2018-09-22T18:41:15.946Z,97063.34
2018-09-22T18:43:44.993Z,97070.80
2018-09-22T18:46:14.014Z,97071.48
2018-09-22T18:48:42.982Z,97066.92
2018-09-22T18:51:11.955Z,97057.16
2018-09-22T18:53:40.860Z,97049.47
2018-09-22T18:56:09.791Z,97047.14
2018-09-22T18:58:38.690Z,97034.48
2018-09-22T19:01:07.719Z,97032.86
2018-09-22T19:03:36.874Z,97034.03
2018-09-22T19:06:05.822Z,97046.50
2018-09-22T19:08:34.858Z,97055.31
2018-09-22T19:11:03.725Z,97034.03
2018-09-22T19:13:37.403Z,97036.84
2018-09-22T19:16:09.868Z,97028.72
2018-09-22T19:18:45.832Z,97018.19
2018-09-22T19:21:21.580Z,97027.17
2018-09-22T19:23:55.619Z,97040.64
2018-09-22T19:26:28.779Z,97033.20
2018-09-22T19:29:36.886Z,97037.14
2018-09-22T19:32:09.781Z,97039.97
2018-09-22T19:34:45.167Z,97053.69
2018-09-22T19:37:19.023Z,97054.80
2018-09-22T19:39:52.108Z,97050.13
2018-09-22T19:42:39.791Z,97057.91
2018-09-22T19:45:12.060Z,97054.84
2018-09-22T19:47:45.119Z,97050.95
2018-09-22T19:50:17.684Z,97043.98
2018-09-22T19:52:52.072Z,97053.30
2018-09-22T19:55:21.565Z,97051.72
2018-09-22T19:57:50.620Z,97051.41
2018-09-22T20:00:19.654Z,97046.48
2018-09-22T20:02:48.565Z,97049.14
2018-09-22T20:05:17.556Z,97048.67
2018-09-22T20:07:46.638Z,97034.41
2018-09-22T20:10:15.578Z,97034.90
2018-09-22T20:12:44.960Z,97031.28
2018-09-22T20:15:13.893Z,97037.82
2018-09-22T20:17:42.827Z,97047.41
2018-09-22T20:20:11.760Z,97042.79
2018-09-22T20:22:40.625Z,97052.34
2018-09-22T20:25:09.635Z,97053.95
2018-09-22T20:27:38.681Z,97049.51
2018-09-22T20:30:07.761Z,97050.27
2018-09-22T20:32:36.683Z,97047.73
2018-09-22T20:35:05.657Z,97045.50
2018-09-22T20:37:34.511Z,97046.27
2018-09-22T20:40:03.412Z,97056.89
2018-09-22T20:42:32.499Z,97049.60
2018-09-22T20:45:01.533Z,97048.84
2018-09-22T20:47:30.489Z,97049.40
2018-09-22T20:49:59.377Z,97047.06
2018-09-22T20:52:28.339Z,97038.80
2018-09-22T20:54:57.249Z,97039.55
2018-09-22T20:57:26.164Z,97036.70
2018-09-22T20:59:55.027Z,97034.63
2018-09-22T21:02:23.980Z,97038.73
2018-09-22T21:04:52.832Z,97035.13
2018-09-22T21:07:21.703Z,97033.58
2018-09-22T21:09:51.071Z,97039.80
2018-09-22T21:12:19.941Z,97039.45
2018-09-22T21:14:49.144Z,97035.12
2018-09-22T21:17:18.034Z,97032.31
2018-09-22T21:19:46.896Z,97031.52
2018-09-22T21:22:15.822Z,97034.11
2018-09-22T21:24:44.756Z,97040.66
2018-09-22T21:27:13.723Z,97046.88
2018-09-22T21:29:42.588Z,97031.86
2018-09-22T21:32:11.623Z,97029.02
2018-09-22T21:34:40.519Z,97022.00
2018-09-22T21:37:09.412Z,97016.62
2018-09-22T21:39:38.662Z,97013.80
2018-09-22T21:42:07.568Z,97021.83
2018-09-22T21:44:36.448Z,97021.59
2018-09-22T21:47:11.772Z,97018.73
2018-09-22T21:49:40.854Z,97008.89
2018-09-22T21:52:09.733Z,96998.27
2018-09-22T21:54:38.654Z,96999.81
2018-09-22T21:57:07.696Z,97017.84
2018-09-22T21:59:36.572Z,97017.07
2018-09-22T22:02:05.476Z,97022.97
2018-09-22T22:04:34.332Z,97026.17
2018-09-22T22:07:03.260Z,97019.24
2018-09-22T22:09:32.164Z,97011.97
2018-09-22T22:12:01.132Z,97021.89
2018-09-22T22:14:30.159Z,97034.45
2018-09-22T22:16:59.039Z,97026.38
2018-09-22T22:19:28.015Z,97019.30
2018-09-22T22:21:56.875Z,97032.42
2018-09-22T22:24:25.716Z,97038.72
2018-09-22T22:26:54.643Z,97044.44
2018-09-22T22:29:23.591Z,97036.74
2018-09-22T22:31:52.539Z,97037.23
2018-09-22T22:34:21.538Z,97035.98
2018-09-22T22:36:50.402Z,97030.31
2018-09-22T22:39:19.271Z,97028.73
2018-09-22T22:41:48.191Z,97016.90
2018-09-22T22:44:17.126Z,97012.97
2018-09-22T22:46:45.986Z,97016.86
2018-09-22T22:49:14.916Z,97024.16
2018-09-22T22:51:43.908Z,97028.48
2018-09-22T22:54:12.808Z,97010.39
2018-09-22T22:56:41.691Z,97010.69
2018-09-22T22:59:10.590Z,97013.03
2018-09-22T23:01:39.456Z,97010.45
2018-09-22T23:04:08.341Z,97014.88
2018-09-22T23:06:37.259Z,97017.70
2018-09-22T23:09:07.357Z,97022.33
2018-09-22T23:11:36.379Z,97016.66
2018-09-22T23:14:05.331Z,97023.42
2018-09-22T23:16:34.204Z,97016.97
2018-09-22T23:19:03.161Z,97025.28
2018-09-22T23:21:32.063Z,97024.58
2018-09-22T23:24:00.936Z,97019.66
2018-09-22T23:26:29.828Z,97017.88
2018-09-22T23:28:58.868Z,97016.09
2018-09-22T23:31:27.881Z,97013.06
2018-09-22T23:33:56.737Z,97007.89
2018-09-22T23:36:25.623Z,97005.42
2018-09-22T23:38:54.471Z,97009.55
2018-09-22T23:41:23.348Z,97006.27
2018-09-22T23:43:52.200Z,97001.58
2018-09-22T23:46:21.151Z,96999.50
2018-09-22T23:48:50.024Z,96993.13
2018-09-22T23:51:18.905Z,97013.03
2018-09-22T23:53:47.788Z,97019.77
2018-09-22T23:56:16.677Z,97018.46
2018-09-22T23:58:45.539Z,97013.81
